sensor_id;sensor_type;location;lat;lon;timestamp;P1;durP1;ratioP1;P2;durP2;ratioP2
49416;SDS011;35290;39.550;8.786;2023-04-03T00:00:27;17.17;;;2.58;;
49416;SDS011;35290;39.550;8.786;2023-04-03T00:02:53;12.60;;;2.50;;
49416;SDS011;35290;39.550;8.786;2023-04-03T00:05:18;20.10;;;2.63;;
49416;SDS011;35290;39.550;8.786;2023-04-03T00:07:43;17.15;;;2.78;;
49416;SDS011;35290;39.550;8.786;2023-04-03T00:10:09;20.63;;;2.72;;
49416;SDS011;35290;39.550;8.786;2023-04-03T00:12:35;17.35;;;2.80;;
49416;SDS011;35290;39.550;8.786;2023-04-03T00:15:00;12.25;;;2.35;;
49416;SDS011;35290;39.550;8.786;2023-04-03T00:17:25;16.20;;;2.45;;
49416;SDS011;35290;39.550;8.786;2023-04-03T00:19:50;16.17;;;2.60;;
49416;SDS011;35290;39.550;8.786;2023-04-03T00:22:16;20.60;;;2.72;;
49416;SDS011;35290;39.550;8.786;2023-04-03T00:24:41;13.57;;;2.30;;
49416;SDS011;35290;39.550;8.786;2023-04-03T00:27:07;14.75;;;2.45;;
49416;SDS011;35290;39.550;8.786;2023-04-03T00:29:32;19.30;;;2.70;;
49416;SDS011;35290;39.550;8.786;2023-04-03T00:31:57;12.93;;;2.65;;
49416;SDS011;35290;39.550;8.786;2023-04-03T00:34:23;18.58;;;3.08;;
49416;SDS011;35290;39.550;8.786;2023-04-03T00:36:48;19.33;;;2.80;;
49416;SDS011;35290;39.550;8.786;2023-04-03T00:39:15;15.02;;;2.85;;
49416;SDS011;35290;39.550;8.786;2023-04-03T00:41:40;15.43;;;2.42;;
49416;SDS011;35290;39.550;8.786;2023-04-03T00:47:05;20.63;;;2.63;;
49416;SDS011;35290;39.550;8.786;2023-04-03T00:49:31;18.90;;;2.83;;
49416;SDS011;35290;39.550;8.786;2023-04-03T00:51:57;17.20;;;2.67;;
49416;SDS011;35290;39.550;8.786;2023-04-03T00:54:22;15.45;;;2.88;;
49416;SDS011;35290;39.550;8.786;2023-04-03T00:56:48;15.05;;;2.38;;
49416;SDS011;35290;39.550;8.786;2023-04-03T00:59:15;12.50;;;1.85;;
49416;SDS011;35290;39.550;8.786;2023-04-03T01:01:42;17.30;;;2.13;;
49416;SDS011;35290;39.550;8.786;2023-04-03T01:04:26;14.00;;;2.30;;
49416;SDS011;35290;39.550;8.786;2023-04-03T01:06:53;22.10;;;2.35;;
49416;SDS011;35290;39.550;8.786;2023-04-03T01:09:20;18.25;;;3.95;;
49416;SDS011;35290;39.550;8.786;2023-04-03T01:11:46;17.00;;;1.98;;
49416;SDS011;35290;39.550;8.786;2023-04-03T01:14:11;15.98;;;2.53;;
49416;SDS011;35290;39.550;8.786;2023-04-03T01:16:36;18.23;;;2.40;;
49416;SDS011;35290;39.550;8.786;2023-04-03T01:19:02;13.82;;;2.45;;
49416;SDS011;35290;39.550;8.786;2023-04-03T01:21:36;13.25;;;2.00;;
49416;SDS011;35290;39.550;8.786;2023-04-03T01:24:30;14.50;;;1.98;;
49416;SDS011;35290;39.550;8.786;2023-04-03T01:26:53;13.60;;;2.50;;
49416;SDS011;35290;39.550;8.786;2023-04-03T01:29:18;15.95;;;2.40;;
49416;SDS011;35290;39.550;8.786;2023-04-03T01:31:51;10.98;;;1.95;;
49416;SDS011;35290;39.550;8.786;2023-04-03T01:34:17;11.80;;;1.70;;
49416;SDS011;35290;39.550;8.786;2023-04-03T01:36:42;11.18;;;2.42;;
49416;SDS011;35290;39.550;8.786;2023-04-03T01:39:08;14.85;;;2.03;;
49416;SDS011;35290;39.550;8.786;2023-04-03T01:41:33;14.38;;;2.20;;
49416;SDS011;35290;39.550;8.786;2023-04-03T01:43:58;12.98;;;2.08;;
49416;SDS011;35290;39.550;8.786;2023-04-03T01:46:24;15.02;;;1.90;;
49416;SDS011;35290;39.550;8.786;2023-04-03T01:48:50;14.95;;;2.10;;
49416;SDS011;35290;39.550;8.786;2023-04-03T01:51:15;13.95;;;2.00;;
49416;SDS011;35290;39.550;8.786;2023-04-03T01:53:41;18.85;;;3.25;;
49416;SDS011;35290;39.550;8.786;2023-04-03T01:56:06;13.95;;;2.50;;
49416;SDS011;35290;39.550;8.786;2023-04-03T01:58:31;16.95;;;3.70;;
49416;SDS011;35290;39.550;8.786;2023-04-03T02:00:57;13.23;;;3.00;;
49416;SDS011;35290;39.550;8.786;2023-04-03T02:03:22;10.10;;;2.42;;
49416;SDS011;35290;39.550;8.786;2023-04-03T02:05:47;12.20;;;2.55;;
49416;SDS011;35290;39.550;8.786;2023-04-03T02:08:13;14.15;;;3.13;;
49416;SDS011;35290;39.550;8.786;2023-04-03T02:10:39;13.68;;;2.88;;
49416;SDS011;35290;39.550;8.786;2023-04-03T02:13:04;10.88;;;2.20;;
49416;SDS011;35290;39.550;8.786;2023-04-03T02:15:30;10.02;;;1.98;;
49416;SDS011;35290;39.550;8.786;2023-04-03T02:17:55;10.55;;;1.73;;
49416;SDS011;35290;39.550;8.786;2023-04-03T02:20:21;11.68;;;2.78;;
49416;SDS011;35290;39.550;8.786;2023-04-03T02:22:49;9.60;;;1.77;;
49416;SDS011;35290;39.550;8.786;2023-04-03T02:25:15;11.93;;;2.00;;
49416;SDS011;35290;39.550;8.786;2023-04-03T02:27:40;15.30;;;2.13;;
49416;SDS011;35290;39.550;8.786;2023-04-03T02:30:06;8.98;;;1.60;;
49416;SDS011;35290;39.550;8.786;2023-04-03T02:32:31;10.95;;;2.28;;
49416;SDS011;35290;39.550;8.786;2023-04-03T02:34:57;20.05;;;2.70;;
49416;SDS011;35290;39.550;8.786;2023-04-03T02:37:22;18.15;;;2.75;;
49416;SDS011;35290;39.550;8.786;2023-04-03T02:39:48;15.55;;;2.47;;
49416;SDS011;35290;39.550;8.786;2023-04-03T02:42:13;12.18;;;2.28;;
49416;SDS011;35290;39.550;8.786;2023-04-03T02:44:38;11.82;;;2.22;;
49416;SDS011;35290;39.550;8.786;2023-04-03T02:47:04;12.40;;;2.08;;
49416;SDS011;35290;39.550;8.786;2023-04-03T02:49:30;17.63;;;2.63;;
49416;SDS011;35290;39.550;8.786;2023-04-03T02:51:55;18.52;;;2.47;;
49416;SDS011;35290;39.550;8.786;2023-04-03T02:54:21;16.02;;;2.33;;
49416;SDS011;35290;39.550;8.786;2023-04-03T02:56:48;13.20;;;2.33;;
49416;SDS011;35290;39.550;8.786;2023-04-03T02:59:13;20.17;;;2.78;;
49416;SDS011;35290;39.550;8.786;2023-04-03T03:01:39;15.90;;;2.47;;
49416;SDS011;35290;39.550;8.786;2023-04-03T03:04:04;11.95;;;1.98;;
49416;SDS011;35290;39.550;8.786;2023-04-03T03:06:30;13.93;;;2.88;;
49416;SDS011;35290;39.550;8.786;2023-04-03T03:08:55;19.00;;;2.80;;
49416;SDS011;35290;39.550;8.786;2023-04-03T03:11:20;21.40;;;2.53;;
49416;SDS011;35290;39.550;8.786;2023-04-03T03:13:46;16.75;;;2.60;;
49416;SDS011;35290;39.550;8.786;2023-04-03T03:16:11;16.15;;;2.65;;
49416;SDS011;35290;39.550;8.786;2023-04-03T03:18:36;13.43;;;3.25;;
49416;SDS011;35290;39.550;8.786;2023-04-03T03:21:02;14.60;;;2.40;;
49416;SDS011;35290;39.550;8.786;2023-04-03T03:23:29;17.95;;;2.35;;
49416;SDS011;35290;39.550;8.786;2023-04-03T03:25:59;15.25;;;2.33;;
49416;SDS011;35290;39.550;8.786;2023-04-03T03:28:24;13.15;;;2.30;;
49416;SDS011;35290;39.550;8.786;2023-04-03T03:30:50;11.80;;;2.13;;
49416;SDS011;35290;39.550;8.786;2023-04-03T03:33:15;17.33;;;2.47;;
49416;SDS011;35290;39.550;8.786;2023-04-03T03:35:42;12.27;;;2.53;;
49416;SDS011;35290;39.550;8.786;2023-04-03T03:38:08;14.95;;;1.90;;
49416;SDS011;35290;39.550;8.786;2023-04-03T03:40:33;14.77;;;2.13;;
49416;SDS011;35290;39.550;8.786;2023-04-03T03:42:58;18.20;;;2.25;;
49416;SDS011;35290;39.550;8.786;2023-04-03T03:45:24;16.05;;;3.40;;
49416;SDS011;35290;39.550;8.786;2023-04-03T03:47:50;18.58;;;2.10;;
49416;SDS011;35290;39.550;8.786;2023-04-03T03:50:15;14.30;;;2.40;;
49416;SDS011;35290;39.550;8.786;2023-04-03T03:52:40;23.10;;;3.97;;
49416;SDS011;35290;39.550;8.786;2023-04-03T03:55:06;14.80;;;2.63;;
49416;SDS011;35290;39.550;8.786;2023-04-03T03:57:31;12.35;;;1.92;;
49416;SDS011;35290;39.550;8.786;2023-04-03T03:59:56;15.80;;;2.42;;
49416;SDS011;35290;39.550;8.786;2023-04-03T04:02:23;18.50;;;2.65;;
49416;SDS011;35290;39.550;8.786;2023-04-03T04:04:49;16.02;;;2.42;;
49416;SDS011;35290;39.550;8.786;2023-04-03T04:07:14;13.05;;;2.38;;
49416;SDS011;35290;39.550;8.786;2023-04-03T04:09:40;13.73;;;2.25;;
49416;SDS011;35290;39.550;8.786;2023-04-03T04:12:05;12.27;;;2.78;;
49416;SDS011;35290;39.550;8.786;2023-04-03T04:14:31;16.98;;;2.63;;
49416;SDS011;35290;39.550;8.786;2023-04-03T04:16:56;17.23;;;2.33;;
49416;SDS011;35290;39.550;8.786;2023-04-03T04:19:21;12.75;;;2.30;;
49416;SDS011;35290;39.550;8.786;2023-04-03T04:21:47;15.05;;;2.05;;
49416;SDS011;35290;39.550;8.786;2023-04-03T04:24:12;12.75;;;2.45;;
49416;SDS011;35290;39.550;8.786;2023-04-03T04:26:37;12.07;;;2.17;;
49416;SDS011;35290;39.550;8.786;2023-04-03T04:29:03;16.17;;;2.40;;
49416;SDS011;35290;39.550;8.786;2023-04-03T04:31:28;13.02;;;1.98;;
49416;SDS011;35290;39.550;8.786;2023-04-03T04:33:54;18.63;;;2.78;;
49416;SDS011;35290;39.550;8.786;2023-04-03T04:36:20;13.32;;;2.30;;
49416;SDS011;35290;39.550;8.786;2023-04-03T04:38:45;9.98;;;2.05;;
49416;SDS011;35290;39.550;8.786;2023-04-03T04:41:11;19.25;;;1.90;;
49416;SDS011;35290;39.550;8.786;2023-04-03T04:43:36;15.30;;;3.25;;
49416;SDS011;35290;39.550;8.786;2023-04-03T04:48:28;15.32;;;2.30;;
49416;SDS011;35290;39.550;8.786;2023-04-03T04:50:53;13.90;;;2.30;;
49416;SDS011;35290;39.550;8.786;2023-04-03T04:53:19;18.58;;;2.80;;
49416;SDS011;35290;39.550;8.786;2023-04-03T04:55:44;13.77;;;2.28;;
49416;SDS011;35290;39.550;8.786;2023-04-03T04:58:10;20.23;;;2.83;;
49416;SDS011;35290;39.550;8.786;2023-04-03T05:00:35;22.80;;;2.97;;
49416;SDS011;35290;39.550;8.786;2023-04-03T05:03:00;16.33;;;3.00;;
49416;SDS011;35290;39.550;8.786;2023-04-03T05:05:25;18.45;;;3.20;;
49416;SDS011;35290;39.550;8.786;2023-04-03T05:07:51;16.00;;;2.90;;
49416;SDS011;35290;39.550;8.786;2023-04-03T05:10:16;15.15;;;2.60;;
49416;SDS011;35290;39.550;8.786;2023-04-03T05:12:42;18.52;;;2.85;;
49416;SDS011;35290;39.550;8.786;2023-04-03T05:15:07;14.10;;;2.63;;
49416;SDS011;35290;39.550;8.786;2023-04-03T05:17:33;17.65;;;2.83;;
49416;SDS011;35290;39.550;8.786;2023-04-03T05:19:58;18.00;;;3.30;;
49416;SDS011;35290;39.550;8.786;2023-04-03T05:22:24;22.40;;;3.30;;
49416;SDS011;35290;39.550;8.786;2023-04-03T05:24:50;22.02;;;3.30;;
49416;SDS011;35290;39.550;8.786;2023-04-03T05:27:16;15.98;;;3.10;;
49416;SDS011;35290;39.550;8.786;2023-04-03T05:29:41;16.67;;;3.30;;
49416;SDS011;35290;39.550;8.786;2023-04-03T05:32:09;12.10;;;3.05;;
49416;SDS011;35290;39.550;8.786;2023-04-03T05:34:34;19.60;;;3.03;;
49416;SDS011;35290;39.550;8.786;2023-04-03T05:37:00;19.27;;;2.83;;
49416;SDS011;35290;39.550;8.786;2023-04-03T05:39:25;14.35;;;2.60;;
49416;SDS011;35290;39.550;8.786;2023-04-03T05:41:50;18.40;;;3.55;;
49416;SDS011;35290;39.550;8.786;2023-04-03T05:44:16;19.90;;;3.63;;
49416;SDS011;35290;39.550;8.786;2023-04-03T05:46:41;25.45;;;4.68;;
49416;SDS011;35290;39.550;8.786;2023-04-03T05:49:06;21.80;;;5.20;;
49416;SDS011;35290;39.550;8.786;2023-04-03T05:51:33;25.92;;;6.63;;
49416;SDS011;35290;39.550;8.786;2023-04-03T05:54:02;25.52;;;5.80;;
49416;SDS011;35290;39.550;8.786;2023-04-03T05:56:28;29.50;;;7.68;;
49416;SDS011;35290;39.550;8.786;2023-04-03T05:58:53;19.58;;;4.80;;
49416;SDS011;35290;39.550;8.786;2023-04-03T06:01:18;19.70;;;3.95;;
49416;SDS011;35290;39.550;8.786;2023-04-03T06:03:44;20.52;;;5.60;;
49416;SDS011;35290;39.550;8.786;2023-04-03T06:06:12;24.08;;;4.20;;
49416;SDS011;35290;39.550;8.786;2023-04-03T06:08:37;17.85;;;2.95;;
49416;SDS011;35290;39.550;8.786;2023-04-03T06:11:04;25.40;;;6.57;;
49416;SDS011;35290;39.550;8.786;2023-04-03T06:13:30;17.30;;;3.15;;
49416;SDS011;35290;39.550;8.786;2023-04-03T06:15:55;15.75;;;2.75;;
49416;SDS011;35290;39.550;8.786;2023-04-03T06:18:21;17.42;;;2.58;;
49416;SDS011;35290;39.550;8.786;2023-04-03T06:20:46;15.60;;;3.95;;
49416;SDS011;35290;39.550;8.786;2023-04-03T06:23:12;18.10;;;4.38;;
49416;SDS011;35290;39.550;8.786;2023-04-03T06:25:37;18.58;;;3.60;;
49416;SDS011;35290;39.550;8.786;2023-04-03T06:28:03;21.83;;;4.70;;
49416;SDS011;35290;39.550;8.786;2023-04-03T06:30:28;16.85;;;3.85;;
49416;SDS011;35290;39.550;8.786;2023-04-03T06:32:54;21.02;;;4.43;;
49416;SDS011;35290;39.550;8.786;2023-04-03T06:35:20;17.42;;;3.55;;
49416;SDS011;35290;39.550;8.786;2023-04-03T06:37:48;21.17;;;4.30;;
49416;SDS011;35290;39.550;8.786;2023-04-03T06:40:15;26.13;;;4.72;;
49416;SDS011;35290;39.550;8.786;2023-04-03T06:42:42;20.15;;;6.15;;
49416;SDS011;35290;39.550;8.786;2023-04-03T06:45:08;23.95;;;4.22;;
49416;SDS011;35290;39.550;8.786;2023-04-03T06:47:34;18.02;;;3.55;;
49416;SDS011;35290;39.550;8.786;2023-04-03T06:50:00;17.13;;;3.38;;
49416;SDS011;35290;39.550;8.786;2023-04-03T06:52:25;13.40;;;3.03;;
49416;SDS011;35290;39.550;8.786;2023-04-03T06:54:51;14.68;;;2.85;;
49416;SDS011;35290;39.550;8.786;2023-04-03T06:57:21;19.60;;;3.78;;
49416;SDS011;35290;39.550;8.786;2023-04-03T06:59:47;24.05;;;4.50;;
49416;SDS011;35290;39.550;8.786;2023-04-03T07:02:12;16.77;;;3.55;;
49416;SDS011;35290;39.550;8.786;2023-04-03T07:04:38;17.50;;;4.53;;
49416;SDS011;35290;39.550;8.786;2023-04-03T07:07:03;14.63;;;3.40;;
49416;SDS011;35290;39.550;8.786;2023-04-03T07:09:28;22.40;;;4.60;;
49416;SDS011;35290;39.550;8.786;2023-04-03T07:11:54;21.88;;;4.38;;
49416;SDS011;35290;39.550;8.786;2023-04-03T07:14:19;22.98;;;5.45;;
49416;SDS011;35290;39.550;8.786;2023-04-03T07:16:44;24.85;;;6.93;;
49416;SDS011;35290;39.550;8.786;2023-04-03T07:19:10;32.72;;;8.30;;
49416;SDS011;35290;39.550;8.786;2023-04-03T07:21:35;33.58;;;8.95;;
49416;SDS011;35290;39.550;8.786;2023-04-03T07:24:00;22.17;;;6.72;;
49416;SDS011;35290;39.550;8.786;2023-04-03T07:26:27;22.20;;;4.90;;
49416;SDS011;35290;39.550;8.786;2023-04-03T07:28:52;22.55;;;5.65;;
49416;SDS011;35290;39.550;8.786;2023-04-03T07:31:18;45.78;;;20.92;;
49416;SDS011;35290;39.550;8.786;2023-04-03T07:33:43;23.77;;;6.07;;
49416;SDS011;35290;39.550;8.786;2023-04-03T07:36:10;23.88;;;4.68;;
49416;SDS011;35290;39.550;8.786;2023-04-03T07:38:36;22.92;;;5.30;;
49416;SDS011;35290;39.550;8.786;2023-04-03T07:41:02;25.73;;;4.57;;
49416;SDS011;35290;39.550;8.786;2023-04-03T07:43:27;20.17;;;5.10;;
49416;SDS011;35290;39.550;8.786;2023-04-03T07:45:55;20.05;;;4.10;;
49416;SDS011;35290;39.550;8.786;2023-04-03T07:48:21;15.68;;;3.17;;
49416;SDS011;35290;39.550;8.786;2023-04-03T07:50:48;18.33;;;3.13;;
49416;SDS011;35290;39.550;8.786;2023-04-03T07:53:13;19.00;;;3.40;;
49416;SDS011;35290;39.550;8.786;2023-04-03T07:55:42;18.85;;;3.42;;
49416;SDS011;35290;39.550;8.786;2023-04-03T07:58:10;21.80;;;4.53;;
49416;SDS011;35290;39.550;8.786;2023-04-03T08:00:36;17.77;;;3.50;;
49416;SDS011;35290;39.550;8.786;2023-04-03T08:03:02;22.63;;;3.60;;
49416;SDS011;35290;39.550;8.786;2023-04-03T08:05:27;19.92;;;3.55;;
49416;SDS011;35290;39.550;8.786;2023-04-03T08:07:52;16.15;;;2.97;;
49416;SDS011;35290;39.550;8.786;2023-04-03T08:10:18;12.40;;;3.20;;
49416;SDS011;35290;39.550;8.786;2023-04-03T08:12:45;14.27;;;2.72;;
49416;SDS011;35290;39.550;8.786;2023-04-03T08:15:12;15.95;;;2.95;;
49416;SDS011;35290;39.550;8.786;2023-04-03T08:17:37;11.75;;;2.25;;
49416;SDS011;35290;39.550;8.786;2023-04-03T08:20:04;18.63;;;3.15;;
49416;SDS011;35290;39.550;8.786;2023-04-03T08:22:30;14.93;;;3.10;;
49416;SDS011;35290;39.550;8.786;2023-04-03T08:24:55;14.13;;;3.28;;
49416;SDS011;35290;39.550;8.786;2023-04-03T08:27:20;11.95;;;3.38;;
49416;SDS011;35290;39.550;8.786;2023-04-03T08:29:46;14.50;;;3.13;;
49416;SDS011;35290;39.550;8.786;2023-04-03T08:32:11;17.95;;;3.40;;
49416;SDS011;35290;39.550;8.786;2023-04-03T08:34:37;14.13;;;2.88;;
49416;SDS011;35290;39.550;8.786;2023-04-03T08:37:04;21.70;;;4.18;;
49416;SDS011;35290;39.550;8.786;2023-04-03T08:39:30;17.45;;;4.18;;
49416;SDS011;35290;39.550;8.786;2023-04-03T08:41:57;14.02;;;3.00;;
49416;SDS011;35290;39.550;8.786;2023-04-03T08:49:49;13.95;;;3.30;;
49416;SDS011;35290;39.550;8.786;2023-04-03T08:52:22;13.43;;;3.40;;
49416;SDS011;35290;39.550;8.786;2023-04-03T08:54:52;12.10;;;3.08;;
49416;SDS011;35290;39.550;8.786;2023-04-03T08:57:20;10.55;;;2.67;;
49416;SDS011;35290;39.550;8.786;2023-04-03T08:59:49;12.57;;;2.95;;
49416;SDS011;35290;39.550;8.786;2023-04-03T09:02:22;7.63;;;1.98;;
49416;SDS011;35290;39.550;8.786;2023-04-03T09:04:48;14.48;;;2.90;;
49416;SDS011;35290;39.550;8.786;2023-04-03T09:07:16;15.50;;;4.43;;
49416;SDS011;35290;39.550;8.786;2023-04-03T09:09:45;11.23;;;3.87;;
49416;SDS011;35290;39.550;8.786;2023-04-03T09:12:19;17.20;;;2.70;;
49416;SDS011;35290;39.550;8.786;2023-04-03T09:22:41;8.10;;;2.22;;
49416;SDS011;35290;39.550;8.786;2023-04-03T09:25:22;10.45;;;2.15;;
49416;SDS011;35290;39.550;8.786;2023-04-03T09:27:48;8.65;;;1.98;;
49416;SDS011;35290;39.550;8.786;2023-04-03T09:30:16;9.95;;;1.80;;
49416;SDS011;35290;39.550;8.786;2023-04-03T09:32:43;15.27;;;3.38;;
49416;SDS011;35290;39.550;8.786;2023-04-03T09:37:48;11.93;;;2.97;;
49416;SDS011;35290;39.550;8.786;2023-04-03T09:42:47;15.70;;;4.10;;
49416;SDS011;35290;39.550;8.786;2023-04-03T09:45:21;12.60;;;3.08;;
49416;SDS011;35290;39.550;8.786;2023-04-03T09:47:47;11.70;;;2.92;;
49416;SDS011;35290;39.550;8.786;2023-04-03T09:52:38;14.35;;;4.32;;
49416;SDS011;35290;39.550;8.786;2023-04-03T09:55:13;10.07;;;3.50;;
49416;SDS011;35290;39.550;8.786;2023-04-03T09:57:39;14.30;;;3.72;;
49416;SDS011;35290;39.550;8.786;2023-04-03T10:00:05;12.30;;;2.88;;
49416;SDS011;35290;39.550;8.786;2023-04-03T10:05:03;7.53;;;2.88;;
49416;SDS011;35290;39.550;8.786;2023-04-03T10:07:33;10.77;;;3.15;;
49416;SDS011;35290;39.550;8.786;2023-04-03T10:10:00;9.70;;;3.88;;
49416;SDS011;35290;39.550;8.786;2023-04-03T10:12:26;10.15;;;3.00;;
49416;SDS011;35290;39.550;8.786;2023-04-03T10:24:54;4.40;;;1.90;;
49416;SDS011;35290;39.550;8.786;2023-04-03T10:37:47;7.68;;;2.10;;
49416;SDS011;35290;39.550;8.786;2023-04-03T10:40:35;10.57;;;3.75;;
49416;SDS011;35290;39.550;8.786;2023-04-03T10:50:35;11.45;;;2.88;;
49416;SDS011;35290;39.550;8.786;2023-04-03T10:58:06;13.23;;;2.50;;
49416;SDS011;35290;39.550;8.786;2023-04-03T11:03:13;10.20;;;1.92;;
49416;SDS011;35290;39.550;8.786;2023-04-03T11:05:45;12.40;;;2.30;;
49416;SDS011;35290;39.550;8.786;2023-04-03T11:10:42;8.23;;;1.92;;
49416;SDS011;35290;39.550;8.786;2023-04-03T11:13:12;8.52;;;2.30;;
49416;SDS011;35290;39.550;8.786;2023-04-03T11:15:38;8.57;;;2.75;;
49416;SDS011;35290;39.550;8.786;2023-04-03T11:18:05;10.68;;;2.20;;
49416;SDS011;35290;39.550;8.786;2023-04-03T11:20:32;15.15;;;3.30;;
49416;SDS011;35290;39.550;8.786;2023-04-03T11:25:40;17.60;;;5.78;;
49416;SDS011;35290;39.550;8.786;2023-04-03T11:28:12;7.53;;;2.25;;
49416;SDS011;35290;39.550;8.786;2023-04-03T11:31:04;11.23;;;3.10;;
49416;SDS011;35290;39.550;8.786;2023-04-03T11:38:35;8.00;;;1.80;;
49416;SDS011;35290;39.550;8.786;2023-04-03T11:41:06;7.40;;;1.73;;
49416;SDS011;35290;39.550;8.786;2023-04-03T11:43:32;10.02;;;2.20;;
49416;SDS011;35290;39.550;8.786;2023-04-03T11:46:04;10.63;;;2.80;;
49416;SDS011;35290;39.550;8.786;2023-04-03T11:51:01;9.82;;;2.30;;
49416;SDS011;35290;39.550;8.786;2023-04-03T11:55:56;9.98;;;4.07;;
49416;SDS011;35290;39.550;8.786;2023-04-03T12:00:51;6.72;;;2.00;;
49416;SDS011;35290;39.550;8.786;2023-04-03T12:13:33;7.78;;;2.70;;
49416;SDS011;35290;39.550;8.786;2023-04-03T12:15:59;8.60;;;3.65;;
49416;SDS011;35290;39.550;8.786;2023-04-03T12:21:02;8.50;;;2.85;;
49416;SDS011;35290;39.550;8.786;2023-04-03T12:23:32;14.52;;;2.80;;
49416;SDS011;35290;39.550;8.786;2023-04-03T12:26:40;9.80;;;2.50;;
49416;SDS011;35290;39.550;8.786;2023-04-03T12:28:46;7.28;;;2.33;;
49416;SDS011;35290;39.550;8.786;2023-04-03T12:31:13;10.95;;;2.97;;
49416;SDS011;35290;39.550;8.786;2023-04-03T12:36:42;10.13;;;3.60;;
49416;SDS011;35290;39.550;8.786;2023-04-03T12:39:33;15.07;;;6.28;;
49416;SDS011;35290;39.550;8.786;2023-04-03T12:42:32;14.25;;;4.07;;
49416;SDS011;35290;39.550;8.786;2023-04-03T12:44:58;9.00;;;2.33;;
49416;SDS011;35290;39.550;8.786;2023-04-03T12:47:31;10.73;;;3.10;;
49416;SDS011;35290;39.550;8.786;2023-04-03T12:49:58;7.65;;;3.28;;
49416;SDS011;35290;39.550;8.786;2023-04-03T12:52:30;13.15;;;2.92;;
49416;SDS011;35290;39.550;8.786;2023-04-03T12:54:57;9.27;;;2.83;;
49416;SDS011;35290;39.550;8.786;2023-04-03T12:57:24;7.45;;;3.40;;
49416;SDS011;35290;39.550;8.786;2023-04-03T12:59:51;7.75;;;3.10;;
49416;SDS011;35290;39.550;8.786;2023-04-03T13:02:19;5.65;;;2.50;;
49416;SDS011;35290;39.550;8.786;2023-04-03T13:04:46;8.73;;;2.53;;
49416;SDS011;35290;39.550;8.786;2023-04-03T13:07:19;11.27;;;2.85;;
49416;SDS011;35290;39.550;8.786;2023-04-03T13:09:47;10.52;;;2.78;;
49416;SDS011;35290;39.550;8.786;2023-04-03T13:12:20;8.75;;;3.13;;
49416;SDS011;35290;39.550;8.786;2023-04-03T13:14:56;10.93;;;3.85;;
49416;SDS011;35290;39.550;8.786;2023-04-03T13:17:21;17.85;;;5.72;;
49416;SDS011;35290;39.550;8.786;2023-04-03T13:19:47;16.77;;;5.07;;
49416;SDS011;35290;39.550;8.786;2023-04-03T13:24:57;14.75;;;3.15;;
49416;SDS011;35290;39.550;8.786;2023-04-03T13:27:23;11.88;;;2.88;;
49416;SDS011;35290;39.550;8.786;2023-04-03T13:29:52;14.20;;;3.28;;
49416;SDS011;35290;39.550;8.786;2023-04-03T13:32:22;15.45;;;3.10;;
49416;SDS011;35290;39.550;8.786;2023-04-03T13:34:48;17.40;;;3.38;;
49416;SDS011;35290;39.550;8.786;2023-04-03T13:37:24;14.98;;;4.00;;
49416;SDS011;35290;39.550;8.786;2023-04-03T13:42:35;9.60;;;2.78;;
49416;SDS011;35290;39.550;8.786;2023-04-03T13:45:34;10.25;;;2.50;;
49416;SDS011;35290;39.550;8.786;2023-04-03T13:48:16;5.38;;;2.42;;
49416;SDS011;35290;39.550;8.786;2023-04-03T13:50:58;10.93;;;3.08;;
49416;SDS011;35290;39.550;8.786;2023-04-03T13:53:24;10.98;;;4.53;;
49416;SDS011;35290;39.550;8.786;2023-04-03T13:55:55;15.70;;;6.75;;
49416;SDS011;35290;39.550;8.786;2023-04-03T13:58:23;15.15;;;5.93;;
49416;SDS011;35290;39.550;8.786;2023-04-03T14:00:53;13.52;;;5.20;;
49416;SDS011;35290;39.550;8.786;2023-04-03T14:03:36;7.40;;;2.30;;
49416;SDS011;35290;39.550;8.786;2023-04-03T14:06:04;10.98;;;3.00;;
49416;SDS011;35290;39.550;8.786;2023-04-03T14:08:30;11.73;;;3.00;;
49416;SDS011;35290;39.550;8.786;2023-04-03T14:10:55;9.88;;;2.80;;
49416;SDS011;35290;39.550;8.786;2023-04-03T14:13:20;8.48;;;2.90;;
49416;SDS011;35290;39.550;8.786;2023-04-03T14:15:47;8.77;;;3.72;;
49416;SDS011;35290;39.550;8.786;2023-04-03T14:18:14;13.05;;;4.90;;
49416;SDS011;35290;39.550;8.786;2023-04-03T14:20:40;8.70;;;3.45;;
49416;SDS011;35290;39.550;8.786;2023-04-03T14:23:06;11.30;;;3.40;;
49416;SDS011;35290;39.550;8.786;2023-04-03T14:25:32;8.43;;;3.03;;
49416;SDS011;35290;39.550;8.786;2023-04-03T14:27:57;10.10;;;3.00;;
49416;SDS011;35290;39.550;8.786;2023-04-03T14:30:29;11.07;;;3.42;;
49416;SDS011;35290;39.550;8.786;2023-04-03T14:32:55;10.95;;;3.20;;
49416;SDS011;35290;39.550;8.786;2023-04-03T14:35:21;15.25;;;3.47;;
49416;SDS011;35290;39.550;8.786;2023-04-03T14:37:46;15.80;;;4.32;;
49416;SDS011;35290;39.550;8.786;2023-04-03T14:40:17;16.02;;;4.90;;
49416;SDS011;35290;39.550;8.786;2023-04-03T14:42:42;14.63;;;4.18;;
49416;SDS011;35290;39.550;8.786;2023-04-03T14:45:09;12.90;;;3.65;;
49416;SDS011;35290;39.550;8.786;2023-04-03T14:47:37;12.73;;;3.15;;
49416;SDS011;35290;39.550;8.786;2023-04-03T14:50:04;11.20;;;2.97;;
49416;SDS011;35290;39.550;8.786;2023-04-03T14:52:33;13.57;;;4.60;;
49416;SDS011;35290;39.550;8.786;2023-04-03T14:54:58;11.88;;;3.83;;
49416;SDS011;35290;39.550;8.786;2023-04-03T14:57:25;8.52;;;3.88;;
49416;SDS011;35290;39.550;8.786;2023-04-03T14:59:51;10.63;;;4.65;;
49416;SDS011;35290;39.550;8.786;2023-04-03T15:02:28;10.20;;;3.30;;
49416;SDS011;35290;39.550;8.786;2023-04-03T15:04:54;7.82;;;3.72;;
49416;SDS011;35290;39.550;8.786;2023-04-03T15:07:19;10.75;;;3.50;;
49416;SDS011;35290;39.550;8.786;2023-04-03T15:09:45;32.40;;;15.98;;
49416;SDS011;35290;39.550;8.786;2023-04-03T16:06:12;8.32;;;2.50;;
49416;SDS011;35290;39.550;8.786;2023-04-03T16:12:21;6.43;;;3.50;;
49416;SDS011;35290;39.550;8.786;2023-04-03T16:15:08;7.30;;;3.58;;
49416;SDS011;35290;39.550;8.786;2023-04-03T16:20:58;6.60;;;2.83;;
49416;SDS011;35290;39.550;8.786;2023-04-03T16:23:26;5.30;;;2.50;;
49416;SDS011;35290;39.550;8.786;2023-04-03T16:25:52;6.22;;;2.17;;
49416;SDS011;35290;39.550;8.786;2023-04-03T16:52:58;5.72;;;2.40;;
49416;SDS011;35290;39.550;8.786;2023-04-03T17:46:36;10.27;;;2.05;;
49416;SDS011;35290;39.550;8.786;2023-04-03T18:13:21;15.07;;;4.55;;
49416;SDS011;35290;39.550;8.786;2023-04-03T18:21:56;10.27;;;2.97;;
49416;SDS011;35290;39.550;8.786;2023-04-03T19:22:38;13.50;;;2.78;;
49416;SDS011;35290;39.550;8.786;2023-04-03T19:26:16;19.80;;;2.95;;
49416;SDS011;35290;39.550;8.786;2023-04-03T20:41:03;18.73;;;4.25;;
49416;SDS011;35290;39.550;8.786;2023-04-03T20:43:34;16.38;;;4.15;;
49416;SDS011;35290;39.550;8.786;2023-04-03T20:46:04;19.85;;;4.35;;
49416;SDS011;35290;39.550;8.786;2023-04-03T20:48:30;20.55;;;4.60;;
49416;SDS011;35290;39.550;8.786;2023-04-03T20:50:56;22.58;;;4.68;;
49416;SDS011;35290;39.550;8.786;2023-04-03T20:53:22;19.55;;;5.00;;
49416;SDS011;35290;39.550;8.786;2023-04-03T20:55:54;20.83;;;4.80;;
49416;SDS011;35290;39.550;8.786;2023-04-03T20:58:20;20.35;;;4.45;;
49416;SDS011;35290;39.550;8.786;2023-04-03T21:00:47;19.73;;;4.47;;
49416;SDS011;35290;39.550;8.786;2023-04-03T21:03:13;27.20;;;5.13;;
49416;SDS011;35290;39.550;8.786;2023-04-03T21:05:39;18.58;;;4.57;;
49416;SDS011;35290;39.550;8.786;2023-04-03T21:21:18;18.67;;;5.68;;
49416;SDS011;35290;39.550;8.786;2023-04-03T21:23:45;37.50;;;14.80;;
49416;SDS011;35290;39.550;8.786;2023-04-03T21:26:11;23.08;;;5.90;;
49416;SDS011;35290;39.550;8.786;2023-04-03T21:28:37;28.40;;;7.18;;
49416;SDS011;35290;39.550;8.786;2023-04-03T21:31:06;22.48;;;5.72;;